Terminal Aerodrome Forecast
Issued by NWS

Home | Current Version | Previous Version | Text Only | Print | Product List | Glossary On
Versions: 1 2 3 4 5 6 7 8 9 10 11 12 13 14 15 16 17
878
FTUS43 KAPX 130406 AAA
TAFMBL
TAF AMD
KMBL 130406Z 1304/1324 34013G22KT 3SM -SHSN BLSN SCT015 OVC025
      TEMPO 1304/1308 1/2SM -SHSN BLSN BKN015
     FM131000 32012G21KT 4SM -SHSN BKN025 OVC040
      AMD LTD TO CLD VIS AND WIND=

USA.gov is the U.S. government's official web portal to all federal, state and local government web resources and services.